sensor_id;sensor_type;location;lat;lon;timestamp;P1;durP1;ratioP1;P2;durP2;ratioP2
8993;SDS011;4532;50.886;4.700;2023-07-08T00:01:38;8.68;;;5.05;;
8993;SDS011;4532;50.886;4.700;2023-07-08T00:04:05;7.53;;;4.63;;
8993;SDS011;4532;50.886;4.700;2023-07-08T00:06:34;8.50;;;4.72;;
8993;SDS011;4532;50.886;4.700;2023-07-08T00:09:10;6.35;;;4.90;;
8993;SDS011;4532;50.886;4.700;2023-07-08T00:11:43;8.68;;;5.25;;
8993;SDS011;4532;50.886;4.700;2023-07-08T00:14:12;10.30;;;5.07;;
8993;SDS011;4532;50.886;4.700;2023-07-08T00:16:42;9.13;;;4.60;;
8993;SDS011;4532;50.886;4.700;2023-07-08T00:19:14;8.55;;;5.18;;
8993;SDS011;4532;50.886;4.700;2023-07-08T00:21:45;5.55;;;4.80;;
8993;SDS011;4532;50.886;4.700;2023-07-08T00:24:12;10.85;;;4.82;;
8993;SDS011;4532;50.886;4.700;2023-07-08T00:26:42;7.25;;;5.40;;
8993;SDS011;4532;50.886;4.700;2023-07-08T00:29:09;9.13;;;4.97;;
8993;SDS011;4532;50.886;4.700;2023-07-08T00:31:37;6.75;;;4.68;;
8993;SDS011;4532;50.886;4.700;2023-07-08T00:34:09;8.63;;;4.95;;
8993;SDS011;4532;50.886;4.700;2023-07-08T00:36:36;5.30;;;4.75;;
8993;SDS011;4532;50.886;4.700;2023-07-08T00:39:10;7.65;;;4.60;;
8993;SDS011;4532;50.886;4.700;2023-07-08T00:41:41;8.10;;;5.38;;
8993;SDS011;4532;50.886;4.700;2023-07-08T00:44:12;7.03;;;4.97;;
8993;SDS011;4532;50.886;4.700;2023-07-08T00:49:36;8.98;;;5.00;;
8993;SDS011;4532;50.886;4.700;2023-07-08T00:52:17;7.25;;;4.78;;
8993;SDS011;4532;50.886;4.700;2023-07-08T00:54:45;8.35;;;4.70;;
8993;SDS011;4532;50.886;4.700;2023-07-08T00:57:18;9.63;;;5.28;;
8993;SDS011;4532;50.886;4.700;2023-07-08T01:02:25;6.95;;;5.30;;
8993;SDS011;4532;50.886;4.700;2023-07-08T01:07:30;9.07;;;5.10;;
8993;SDS011;4532;50.886;4.700;2023-07-08T01:10:10;10.23;;;5.43;;
8993;SDS011;4532;50.886;4.700;2023-07-08T01:12:48;6.75;;;5.18;;
8993;SDS011;4532;50.886;4.700;2023-07-08T01:15:24;7.30;;;5.80;;
8993;SDS011;4532;50.886;4.700;2023-07-08T01:17:56;8.27;;;5.63;;
8993;SDS011;4532;50.886;4.700;2023-07-08T01:20:26;6.97;;;5.50;;
8993;SDS011;4532;50.886;4.700;2023-07-08T01:22:55;8.07;;;5.43;;
8993;SDS011;4532;50.886;4.700;2023-07-08T01:25:22;8.75;;;5.82;;
8993;SDS011;4532;50.886;4.700;2023-07-08T01:27:55;6.78;;;5.45;;
8993;SDS011;4532;50.886;4.700;2023-07-08T01:30:26;6.80;;;5.32;;
8993;SDS011;4532;50.886;4.700;2023-07-08T01:32:58;6.97;;;5.45;;
8993;SDS011;4532;50.886;4.700;2023-07-08T01:35:29;8.10;;;5.72;;
8993;SDS011;4532;50.886;4.700;2023-07-08T01:37:58;7.22;;;5.72;;
8993;SDS011;4532;50.886;4.700;2023-07-08T01:40:31;7.78;;;5.53;;
8993;SDS011;4532;50.886;4.700;2023-07-08T01:43:01;6.78;;;5.13;;
8993;SDS011;4532;50.886;4.700;2023-07-08T01:45:33;8.63;;;5.70;;
8993;SDS011;4532;50.886;4.700;2023-07-08T01:48:07;14.98;;;6.43;;
8993;SDS011;4532;50.886;4.700;2023-07-08T01:50:39;6.65;;;5.18;;
8993;SDS011;4532;50.886;4.700;2023-07-08T01:53:13;7.38;;;5.82;;
8993;SDS011;4532;50.886;4.700;2023-07-08T01:55:44;11.27;;;5.78;;
8993;SDS011;4532;50.886;4.700;2023-07-08T01:58:13;6.78;;;5.35;;
8993;SDS011;4532;50.886;4.700;2023-07-08T02:00:40;7.10;;;5.60;;
8993;SDS011;4532;50.886;4.700;2023-07-08T02:03:17;7.13;;;5.43;;
8993;SDS011;4532;50.886;4.700;2023-07-08T02:05:47;8.32;;;5.28;;
8993;SDS011;4532;50.886;4.700;2023-07-08T02:08:17;10.43;;;6.00;;
8993;SDS011;4532;50.886;4.700;2023-07-08T02:10:48;7.50;;;6.18;;
8993;SDS011;4532;50.886;4.700;2023-07-08T02:13:20;5.45;;;4.88;;
8993;SDS011;4532;50.886;4.700;2023-07-08T02:15:53;9.10;;;5.43;;
8993;SDS011;4532;50.886;4.700;2023-07-08T02:18:22;7.13;;;5.32;;
8993;SDS011;4532;50.886;4.700;2023-07-08T02:20:58;8.75;;;5.50;;
8993;SDS011;4532;50.886;4.700;2023-07-08T02:23:28;8.38;;;5.40;;
8993;SDS011;4532;50.886;4.700;2023-07-08T02:25:55;9.07;;;5.68;;
8993;SDS011;4532;50.886;4.700;2023-07-08T02:28:25;8.43;;;5.68;;
8993;SDS011;4532;50.886;4.700;2023-07-08T02:30:54;8.98;;;5.30;;
8993;SDS011;4532;50.886;4.700;2023-07-08T02:33:22;7.72;;;5.30;;
8993;SDS011;4532;50.886;4.700;2023-07-08T02:35:54;7.43;;;5.07;;
8993;SDS011;4532;50.886;4.700;2023-07-08T02:38:23;11.05;;;5.72;;
8993;SDS011;4532;50.886;4.700;2023-07-08T02:40:55;7.38;;;5.18;;
8993;SDS011;4532;50.886;4.700;2023-07-08T02:43:25;6.53;;;5.20;;
8993;SDS011;4532;50.886;4.700;2023-07-08T02:45:56;9.98;;;5.55;;
8993;SDS011;4532;50.886;4.700;2023-07-08T02:48:23;8.27;;;5.57;;
8993;SDS011;4532;50.886;4.700;2023-07-08T02:50:58;7.45;;;5.47;;
8993;SDS011;4532;50.886;4.700;2023-07-08T02:53:31;10.00;;;5.55;;
8993;SDS011;4532;50.886;4.700;2023-07-08T02:56:06;8.60;;;5.88;;
8993;SDS011;4532;50.886;4.700;2023-07-08T02:58:33;7.28;;;5.63;;
8993;SDS011;4532;50.886;4.700;2023-07-08T03:01:01;7.30;;;5.70;;
8993;SDS011;4532;50.886;4.700;2023-07-08T03:03:30;7.63;;;5.53;;
8993;SDS011;4532;50.886;4.700;2023-07-08T03:05:58;7.03;;;5.18;;
8993;SDS011;4532;50.886;4.700;2023-07-08T03:08:29;7.68;;;5.57;;
8993;SDS011;4532;50.886;4.700;2023-07-08T03:10:57;9.48;;;5.43;;
8993;SDS011;4532;50.886;4.700;2023-07-08T03:13:27;10.80;;;6.07;;
8993;SDS011;4532;50.886;4.700;2023-07-08T03:15:58;7.65;;;5.25;;
8993;SDS011;4532;50.886;4.700;2023-07-08T03:18:35;7.75;;;5.65;;
8993;SDS011;4532;50.886;4.700;2023-07-08T03:21:15;6.05;;;5.45;;
8993;SDS011;4532;50.886;4.700;2023-07-08T03:23:43;8.07;;;5.57;;
8993;SDS011;4532;50.886;4.700;2023-07-08T03:26:12;7.25;;;5.72;;
8993;SDS011;4532;50.886;4.700;2023-07-08T03:28:44;7.30;;;5.35;;
8993;SDS011;4532;50.886;4.700;2023-07-08T03:31:13;6.60;;;5.20;;
8993;SDS011;4532;50.886;4.700;2023-07-08T03:33:40;7.18;;;5.90;;
8993;SDS011;4532;50.886;4.700;2023-07-08T03:36:11;9.27;;;6.07;;
8993;SDS011;4532;50.886;4.700;2023-07-08T03:38:52;9.93;;;5.78;;
8993;SDS011;4532;50.886;4.700;2023-07-08T03:41:22;6.95;;;5.70;;
8993;SDS011;4532;50.886;4.700;2023-07-08T03:43:54;7.10;;;5.70;;
8993;SDS011;4532;50.886;4.700;2023-07-08T03:46:21;7.18;;;6.00;;
8993;SDS011;4532;50.886;4.700;2023-07-08T03:48:54;8.05;;;5.75;;
8993;SDS011;4532;50.886;4.700;2023-07-08T03:51:22;7.95;;;5.85;;
8993;SDS011;4532;50.886;4.700;2023-07-08T03:53:54;7.70;;;6.00;;
8993;SDS011;4532;50.886;4.700;2023-07-08T03:56:24;6.00;;;5.40;;
8993;SDS011;4532;50.886;4.700;2023-07-08T03:58:51;7.68;;;6.00;;
8993;SDS011;4532;50.886;4.700;2023-07-08T04:01:19;6.28;;;5.10;;
8993;SDS011;4532;50.886;4.700;2023-07-08T04:03:53;6.18;;;5.30;;
8993;SDS011;4532;50.886;4.700;2023-07-08T04:06:25;8.10;;;5.65;;
8993;SDS011;4532;50.886;4.700;2023-07-08T04:08:56;7.80;;;5.85;;
8993;SDS011;4532;50.886;4.700;2023-07-08T04:11:23;6.75;;;5.65;;
8993;SDS011;4532;50.886;4.700;2023-07-08T04:13:50;9.88;;;6.53;;
8993;SDS011;4532;50.886;4.700;2023-07-08T04:16:25;8.65;;;5.82;;
8993;SDS011;4532;50.886;4.700;2023-07-08T04:18:55;7.30;;;5.70;;
8993;SDS011;4532;50.886;4.700;2023-07-08T04:21:25;7.07;;;5.85;;
8993;SDS011;4532;50.886;4.700;2023-07-08T04:23:52;8.25;;;5.68;;
8993;SDS011;4532;50.886;4.700;2023-07-08T04:26:22;9.20;;;5.50;;
8993;SDS011;4532;50.886;4.700;2023-07-08T04:28:49;6.68;;;5.28;;
8993;SDS011;4532;50.886;4.700;2023-07-08T04:31:19;7.68;;;5.60;;
8993;SDS011;4532;50.886;4.700;2023-07-08T04:33:48;7.38;;;5.65;;
8993;SDS011;4532;50.886;4.700;2023-07-08T04:36:26;6.57;;;5.32;;
8993;SDS011;4532;50.886;4.700;2023-07-08T04:38:53;9.38;;;5.65;;
8993;SDS011;4532;50.886;4.700;2023-07-08T04:41:24;7.68;;;5.85;;
8993;SDS011;4532;50.886;4.700;2023-07-08T04:43:54;8.38;;;6.10;;
8993;SDS011;4532;50.886;4.700;2023-07-08T04:46:36;8.38;;;5.40;;
8993;SDS011;4532;50.886;4.700;2023-07-08T04:49:22;7.13;;;5.88;;
8993;SDS011;4532;50.886;4.700;2023-07-08T04:51:58;10.18;;;6.25;;
8993;SDS011;4532;50.886;4.700;2023-07-08T04:54:26;7.90;;;5.95;;
8993;SDS011;4532;50.886;4.700;2023-07-08T04:56:55;8.00;;;6.05;;
8993;SDS011;4532;50.886;4.700;2023-07-08T04:59:25;6.88;;;5.50;;
8993;SDS011;4532;50.886;4.700;2023-07-08T05:01:55;12.13;;;5.75;;
8993;SDS011;4532;50.886;4.700;2023-07-08T05:04:22;8.40;;;5.68;;
8993;SDS011;4532;50.886;4.700;2023-07-08T05:06:52;8.13;;;6.22;;
8993;SDS011;4532;50.886;4.700;2023-07-08T05:09:19;6.22;;;5.40;;
8993;SDS011;4532;50.886;4.700;2023-07-08T05:11:55;8.45;;;5.85;;
8993;SDS011;4532;50.886;4.700;2023-07-08T05:14:24;12.63;;;5.65;;
8993;SDS011;4532;50.886;4.700;2023-07-08T05:16:56;7.93;;;5.50;;
8993;SDS011;4532;50.886;4.700;2023-07-08T05:19:24;7.47;;;5.40;;
8993;SDS011;4532;50.886;4.700;2023-07-08T05:21:54;7.20;;;5.70;;
8993;SDS011;4532;50.886;4.700;2023-07-08T05:24:28;8.27;;;5.55;;
8993;SDS011;4532;50.886;4.700;2023-07-08T05:26:55;7.03;;;5.82;;
8993;SDS011;4532;50.886;4.700;2023-07-08T05:29:28;6.78;;;5.72;;
8993;SDS011;4532;50.886;4.700;2023-07-08T05:32:00;7.65;;;5.68;;
8993;SDS011;4532;50.886;4.700;2023-07-08T05:34:29;10.00;;;7.15;;
8993;SDS011;4532;50.886;4.700;2023-07-08T05:36:56;11.65;;;6.53;;
8993;SDS011;4532;50.886;4.700;2023-07-08T05:39:26;10.13;;;6.18;;
8993;SDS011;4532;50.886;4.700;2023-07-08T05:42:00;13.23;;;5.93;;
8993;SDS011;4532;50.886;4.700;2023-07-08T05:44:27;7.80;;;5.93;;
8993;SDS011;4532;50.886;4.700;2023-07-08T05:46:54;8.52;;;6.07;;
8993;SDS011;4532;50.886;4.700;2023-07-08T05:49:24;9.07;;;6.85;;
8993;SDS011;4532;50.886;4.700;2023-07-08T05:51:54;12.13;;;6.47;;
8993;SDS011;4532;50.886;4.700;2023-07-08T05:54:24;8.88;;;6.10;;
8993;SDS011;4532;50.886;4.700;2023-07-08T05:56:53;8.95;;;6.38;;
8993;SDS011;4532;50.886;4.700;2023-07-08T05:59:22;10.10;;;6.20;;
8993;SDS011;4532;50.886;4.700;2023-07-08T06:01:49;8.10;;;5.80;;
8993;SDS011;4532;50.886;4.700;2023-07-08T06:04:19;8.07;;;6.05;;
8993;SDS011;4532;50.886;4.700;2023-07-08T06:06:49;8.25;;;6.40;;
8993;SDS011;4532;50.886;4.700;2023-07-08T06:09:17;7.55;;;5.97;;
8993;SDS011;4532;50.886;4.700;2023-07-08T06:11:44;8.75;;;6.43;;
8993;SDS011;4532;50.886;4.700;2023-07-08T06:14:11;9.25;;;6.40;;
8993;SDS011;4532;50.886;4.700;2023-07-08T06:16:38;8.68;;;5.97;;
8993;SDS011;4532;50.886;4.700;2023-07-08T06:19:07;9.55;;;6.28;;
8993;SDS011;4532;50.886;4.700;2023-07-08T06:21:39;9.00;;;6.28;;
8993;SDS011;4532;50.886;4.700;2023-07-08T06:24:09;8.70;;;6.30;;
8993;SDS011;4532;50.886;4.700;2023-07-08T06:26:44;8.30;;;6.03;;
8993;SDS011;4532;50.886;4.700;2023-07-08T06:29:24;8.32;;;5.72;;
8993;SDS011;4532;50.886;4.700;2023-07-08T06:31:51;9.25;;;5.90;;
8993;SDS011;4532;50.886;4.700;2023-07-08T06:34:19;7.22;;;5.90;;
8993;SDS011;4532;50.886;4.700;2023-07-08T06:36:50;9.20;;;6.15;;
8993;SDS011;4532;50.886;4.700;2023-07-08T06:39:20;10.98;;;6.90;;
8993;SDS011;4532;50.886;4.700;2023-07-08T06:41:47;7.43;;;5.57;;
8993;SDS011;4532;50.886;4.700;2023-07-08T06:44:16;9.63;;;6.65;;
8993;SDS011;4532;50.886;4.700;2023-07-08T06:46:43;10.45;;;6.95;;
8993;SDS011;4532;50.886;4.700;2023-07-08T06:49:13;9.52;;;7.13;;
8993;SDS011;4532;50.886;4.700;2023-07-08T06:51:40;11.38;;;6.57;;
8993;SDS011;4532;50.886;4.700;2023-07-08T06:54:11;10.57;;;6.50;;
8993;SDS011;4532;50.886;4.700;2023-07-08T06:56:41;8.70;;;5.90;;
8993;SDS011;4532;50.886;4.700;2023-07-08T06:59:11;8.15;;;6.40;;
8993;SDS011;4532;50.886;4.700;2023-07-08T07:01:38;9.55;;;6.57;;
8993;SDS011;4532;50.886;4.700;2023-07-08T07:04:07;9.35;;;6.20;;
8993;SDS011;4532;50.886;4.700;2023-07-08T07:06:37;8.02;;;5.60;;
8993;SDS011;4532;50.886;4.700;2023-07-08T07:09:07;7.35;;;6.07;;
8993;SDS011;4532;50.886;4.700;2023-07-08T07:11:39;7.93;;;6.10;;
8993;SDS011;4532;50.886;4.700;2023-07-08T07:14:06;7.40;;;6.10;;
8993;SDS011;4532;50.886;4.700;2023-07-08T07:16:38;7.35;;;6.20;;
8993;SDS011;4532;50.886;4.700;2023-07-08T07:19:27;7.70;;;6.18;;
8993;SDS011;4532;50.886;4.700;2023-07-08T07:21:54;8.98;;;6.50;;
8993;SDS011;4532;50.886;4.700;2023-07-08T07:24:22;8.77;;;6.25;;
8993;SDS011;4532;50.886;4.700;2023-07-08T07:26:51;7.75;;;6.47;;
8993;SDS011;4532;50.886;4.700;2023-07-08T07:29:21;9.63;;;6.63;;
8993;SDS011;4532;50.886;4.700;2023-07-08T07:31:50;7.32;;;6.18;;
8993;SDS011;4532;50.886;4.700;2023-07-08T07:34:18;7.72;;;6.13;;
8993;SDS011;4532;50.886;4.700;2023-07-08T07:36:45;8.98;;;6.55;;
8993;SDS011;4532;50.886;4.700;2023-07-08T07:39:12;9.48;;;6.70;;
8993;SDS011;4532;50.886;4.700;2023-07-08T07:41:40;8.32;;;6.30;;
8993;SDS011;4532;50.886;4.700;2023-07-08T07:44:08;9.05;;;6.00;;
8993;SDS011;4532;50.886;4.700;2023-07-08T07:46:38;7.57;;;6.25;;
8993;SDS011;4532;50.886;4.700;2023-07-08T07:49:10;9.77;;;6.80;;
8993;SDS011;4532;50.886;4.700;2023-07-08T07:51:42;9.65;;;6.38;;
8993;SDS011;4532;50.886;4.700;2023-07-08T07:54:12;7.85;;;6.88;;
8993;SDS011;4532;50.886;4.700;2023-07-08T07:56:39;11.15;;;6.78;;
8993;SDS011;4532;50.886;4.700;2023-07-08T07:59:06;7.32;;;6.30;;
8993;SDS011;4532;50.886;4.700;2023-07-08T08:01:37;8.98;;;6.80;;
8993;SDS011;4532;50.886;4.700;2023-07-08T08:04:11;7.55;;;6.22;;
8993;SDS011;4532;50.886;4.700;2023-07-08T08:06:38;7.65;;;6.32;;
8993;SDS011;4532;50.886;4.700;2023-07-08T08:09:08;7.18;;;6.05;;
8993;SDS011;4532;50.886;4.700;2023-07-08T08:11:35;8.57;;;6.28;;
8993;SDS011;4532;50.886;4.700;2023-07-08T08:14:08;8.50;;;6.47;;
8993;SDS011;4532;50.886;4.700;2023-07-08T08:16:37;7.72;;;6.47;;
8993;SDS011;4532;50.886;4.700;2023-07-08T08:19:07;8.15;;;6.22;;
8993;SDS011;4532;50.886;4.700;2023-07-08T08:21:41;12.00;;;6.80;;
8993;SDS011;4532;50.886;4.700;2023-07-08T08:24:08;6.82;;;5.95;;
8993;SDS011;4532;50.886;4.700;2023-07-08T08:26:35;9.82;;;6.65;;
8993;SDS011;4532;50.886;4.700;2023-07-08T08:29:02;8.40;;;6.88;;
8993;SDS011;4532;50.886;4.700;2023-07-08T08:31:32;10.23;;;6.80;;
8993;SDS011;4532;50.886;4.700;2023-07-08T08:33:59;9.63;;;7.07;;
8993;SDS011;4532;50.886;4.700;2023-07-08T08:36:29;7.68;;;6.32;;
8993;SDS011;4532;50.886;4.700;2023-07-08T08:38:56;9.45;;;7.10;;
8993;SDS011;4532;50.886;4.700;2023-07-08T08:41:34;10.48;;;6.80;;
8993;SDS011;4532;50.886;4.700;2023-07-08T08:44:13;10.30;;;7.15;;
8993;SDS011;4532;50.886;4.700;2023-07-08T08:50:12;8.55;;;6.95;;
8993;SDS011;4532;50.886;4.700;2023-07-08T08:52:54;8.48;;;7.03;;
8993;SDS011;4532;50.886;4.700;2023-07-08T08:55:28;7.60;;;6.50;;
8993;SDS011;4532;50.886;4.700;2023-07-08T09:00:56;10.50;;;7.00;;
8993;SDS011;4532;50.886;4.700;2023-07-08T09:03:34;8.18;;;6.50;;
8993;SDS011;4532;50.886;4.700;2023-07-08T09:06:09;9.40;;;7.03;;
8993;SDS011;4532;50.886;4.700;2023-07-08T09:08:38;8.82;;;6.50;;
8993;SDS011;4532;50.886;4.700;2023-07-08T09:13:55;7.85;;;6.80;;
8993;SDS011;4532;50.886;4.700;2023-07-08T09:21:43;10.00;;;6.65;;
8993;SDS011;4532;50.886;4.700;2023-07-08T09:27:16;8.63;;;7.07;;
8993;SDS011;4532;50.886;4.700;2023-07-08T09:29:43;8.45;;;6.10;;
8993;SDS011;4532;50.886;4.700;2023-07-08T09:34:47;7.03;;;6.13;;
8993;SDS011;4532;50.886;4.700;2023-07-08T09:39:53;7.90;;;6.60;;
8993;SDS011;4532;50.886;4.700;2023-07-08T09:42:21;10.00;;;6.80;;
8993;SDS011;4532;50.886;4.700;2023-07-08T09:44:59;10.70;;;7.00;;
8993;SDS011;4532;50.886;4.700;2023-07-08T09:47:32;8.88;;;6.93;;
8993;SDS011;4532;50.886;4.700;2023-07-08T09:50:03;7.45;;;6.25;;
8993;SDS011;4532;50.886;4.700;2023-07-08T09:52:47;11.05;;;6.35;;
8993;SDS011;4532;50.886;4.700;2023-07-08T09:55:15;8.32;;;7.10;;
8993;SDS011;4532;50.886;4.700;2023-07-08T09:57:43;7.97;;;7.07;;
8993;SDS011;4532;50.886;4.700;2023-07-08T10:00:15;8.25;;;6.50;;
8993;SDS011;4532;50.886;4.700;2023-07-08T10:02:45;9.55;;;6.70;;
8993;SDS011;4532;50.886;4.700;2023-07-08T10:05:55;8.02;;;7.18;;
8993;SDS011;4532;50.886;4.700;2023-07-08T10:08:21;8.48;;;6.47;;
8993;SDS011;4532;50.886;4.700;2023-07-08T10:10:55;10.55;;;6.68;;
8993;SDS011;4532;50.886;4.700;2023-07-08T10:13:42;8.07;;;6.72;;
8993;SDS011;4532;50.886;4.700;2023-07-08T10:16:33;8.23;;;6.95;;
8993;SDS011;4532;50.886;4.700;2023-07-08T10:19:04;8.50;;;6.85;;
8993;SDS011;4532;50.886;4.700;2023-07-08T10:30:01;9.90;;;7.00;;
8993;SDS011;4532;50.886;4.700;2023-07-08T10:56:50;8.55;;;7.30;;
8993;SDS011;4532;50.886;4.700;2023-07-08T11:05:44;8.15;;;6.55;;
8993;SDS011;4532;50.886;4.700;2023-07-08T11:08:21;9.18;;;6.78;;
8993;SDS011;4532;50.886;4.700;2023-07-08T11:13:47;8.63;;;6.70;;
8993;SDS011;4532;50.886;4.700;2023-07-08T11:16:23;9.45;;;6.50;;
8993;SDS011;4532;50.886;4.700;2023-07-08T11:19:06;9.07;;;6.32;;
8993;SDS011;4532;50.886;4.700;2023-07-08T11:22:00;7.22;;;6.30;;
8993;SDS011;4532;50.886;4.700;2023-07-08T11:27:04;7.35;;;6.35;;
8993;SDS011;4532;50.886;4.700;2023-07-08T11:29:45;8.63;;;6.60;;
8993;SDS011;4532;50.886;4.700;2023-07-08T11:32:19;7.05;;;5.68;;
8993;SDS011;4532;50.886;4.700;2023-07-08T11:34:51;7.15;;;5.80;;
8993;SDS011;4532;50.886;4.700;2023-07-08T11:37:24;9.43;;;5.78;;
8993;SDS011;4532;50.886;4.700;2023-07-08T11:42:44;7.18;;;6.20;;
8993;SDS011;4532;50.886;4.700;2023-07-08T11:45:36;6.68;;;5.65;;
8993;SDS011;4532;50.886;4.700;2023-07-08T11:48:13;10.75;;;6.15;;
8993;SDS011;4532;50.886;4.700;2023-07-08T11:50:44;7.07;;;6.38;;
8993;SDS011;4532;50.886;4.700;2023-07-08T11:53:27;8.77;;;6.30;;
8993;SDS011;4532;50.886;4.700;2023-07-08T12:03:59;6.13;;;5.53;;
8993;SDS011;4532;50.886;4.700;2023-07-08T12:06:48;7.95;;;6.13;;
8993;SDS011;4532;50.886;4.700;2023-07-08T12:09:28;7.03;;;6.15;;
8993;SDS011;4532;50.886;4.700;2023-07-08T12:12:05;9.32;;;6.10;;
8993;SDS011;4532;50.886;4.700;2023-07-08T12:14:53;7.88;;;5.78;;
8993;SDS011;4532;50.886;4.700;2023-07-08T12:17:30;7.63;;;5.63;;
8993;SDS011;4532;50.886;4.700;2023-07-08T12:19:57;6.20;;;5.18;;
8993;SDS011;4532;50.886;4.700;2023-07-08T12:22:30;7.70;;;5.60;;
8993;SDS011;4532;50.886;4.700;2023-07-08T12:25:00;6.90;;;5.47;;
8993;SDS011;4532;50.886;4.700;2023-07-08T12:27:34;8.18;;;5.75;;
8993;SDS011;4532;50.886;4.700;2023-07-08T12:30:03;8.50;;;6.07;;
8993;SDS011;4532;50.886;4.700;2023-07-08T12:32:30;7.90;;;5.75;;
8993;SDS011;4532;50.886;4.700;2023-07-08T12:34:59;8.40;;;5.85;;
8993;SDS011;4532;50.886;4.700;2023-07-08T12:37:29;6.82;;;5.57;;
8993;SDS011;4532;50.886;4.700;2023-07-08T12:39:57;6.95;;;5.78;;
8993;SDS011;4532;50.886;4.700;2023-07-08T12:42:32;7.43;;;6.05;;
8993;SDS011;4532;50.886;4.700;2023-07-08T12:45:04;9.68;;;6.00;;
8993;SDS011;4532;50.886;4.700;2023-07-08T12:47:40;8.43;;;5.53;;
8993;SDS011;4532;50.886;4.700;2023-07-08T12:50:11;6.45;;;5.00;;
8993;SDS011;4532;50.886;4.700;2023-07-08T12:52:42;7.22;;;5.30;;
8993;SDS011;4532;50.886;4.700;2023-07-08T12:55:10;8.82;;;5.65;;
8993;SDS011;4532;50.886;4.700;2023-07-08T12:57:42;10.02;;;5.43;;
8993;SDS011;4532;50.886;4.700;2023-07-08T13:00:21;14.63;;;5.63;;
8993;SDS011;4532;50.886;4.700;2023-07-08T13:03:18;16.98;;;6.05;;
8993;SDS011;4532;50.886;4.700;2023-07-08T13:05:54;11.63;;;4.97;;
8993;SDS011;4532;50.886;4.700;2023-07-08T13:08:25;10.48;;;3.85;;
8993;SDS011;4532;50.886;4.700;2023-07-08T13:10:59;11.43;;;3.33;;
8993;SDS011;4532;50.886;4.700;2023-07-08T13:13:35;12.95;;;4.00;;
8993;SDS011;4532;50.886;4.700;2023-07-08T13:16:06;6.75;;;3.03;;
8993;SDS011;4532;50.886;4.700;2023-07-08T13:18:41;8.38;;;3.45;;
8993;SDS011;4532;50.886;4.700;2023-07-08T13:21:11;7.65;;;2.42;;
8993;SDS011;4532;50.886;4.700;2023-07-08T13:23:42;4.75;;;2.42;;
8993;SDS011;4532;50.886;4.700;2023-07-08T13:28:43;5.53;;;2.65;;
8993;SDS011;4532;50.886;4.700;2023-07-08T13:33:50;5.32;;;2.90;;
8993;SDS011;4532;50.886;4.700;2023-07-08T13:36:23;4.55;;;3.00;;
8993;SDS011;4532;50.886;4.700;2023-07-08T13:38:54;5.68;;;2.75;;
8993;SDS011;4532;50.886;4.700;2023-07-08T13:41:26;4.38;;;3.00;;
8993;SDS011;4532;50.886;4.700;2023-07-08T13:43:56;7.78;;;3.58;;
8993;SDS011;4532;50.886;4.700;2023-07-08T13:46:36;4.30;;;3.05;;
8993;SDS011;4532;50.886;4.700;2023-07-08T13:49:26;9.40;;;3.70;;
8993;SDS011;4532;50.886;4.700;2023-07-08T13:54:47;5.82;;;3.28;;
8993;SDS011;4532;50.886;4.700;2023-07-08T13:57:21;4.05;;;3.45;;
8993;SDS011;4532;50.886;4.700;2023-07-08T13:59:53;3.85;;;3.05;;
8993;SDS011;4532;50.886;4.700;2023-07-08T14:02:22;5.63;;;3.65;;
8993;SDS011;4532;50.886;4.700;2023-07-08T14:04:54;6.05;;;3.67;;
8993;SDS011;4532;50.886;4.700;2023-07-08T14:07:26;5.30;;;3.65;;
8993;SDS011;4532;50.886;4.700;2023-07-08T14:09:54;6.82;;;4.07;;
8993;SDS011;4532;50.886;4.700;2023-07-08T14:12:24;4.75;;;3.60;;
8993;SDS011;4532;50.886;4.700;2023-07-08T14:14:52;6.03;;;3.70;;
8993;SDS011;4532;50.886;4.700;2023-07-08T14:17:20;6.22;;;3.38;;
8993;SDS011;4532;50.886;4.700;2023-07-08T14:19:55;5.78;;;3.72;;
8993;SDS011;4532;50.886;4.700;2023-07-08T14:22:27;7.20;;;3.45;;
8993;SDS011;4532;50.886;4.700;2023-07-08T14:25:06;5.55;;;3.60;;
8993;SDS011;4532;50.886;4.700;2023-07-08T14:27:38;4.07;;;3.22;;
8993;SDS011;4532;50.886;4.700;2023-07-08T14:30:10;5.43;;;3.30;;
8993;SDS011;4532;50.886;4.700;2023-07-08T14:32:38;8.88;;;3.65;;
8993;SDS011;4532;50.886;4.700;2023-07-08T14:37:42;4.90;;;3.58;;
8993;SDS011;4532;50.886;4.700;2023-07-08T14:40:12;6.13;;;3.40;;
8993;SDS011;4532;50.886;4.700;2023-07-08T14:42:47;4.47;;;3.47;;
8993;SDS011;4532;50.886;4.700;2023-07-08T14:45:17;8.32;;;3.80;;
8993;SDS011;4532;50.886;4.700;2023-07-08T14:47:44;4.57;;;3.33;;
8993;SDS011;4532;50.886;4.700;2023-07-08T14:50:12;4.10;;;2.88;;
8993;SDS011;4532;50.886;4.700;2023-07-08T14:52:43;5.82;;;3.47;;
8993;SDS011;4532;50.886;4.700;2023-07-08T14:55:12;5.32;;;3.30;;
8993;SDS011;4532;50.886;4.700;2023-07-08T14:57:45;4.43;;;3.47;;
8993;SDS011;4532;50.886;4.700;2023-07-08T15:00:15;4.95;;;2.90;;
8993;SDS011;4532;50.886;4.700;2023-07-08T15:02:44;5.60;;;3.53;;
8993;SDS011;4532;50.886;4.700;2023-07-08T15:05:22;5.90;;;3.22;;
8993;SDS011;4532;50.886;4.700;2023-07-08T15:07:54;4.68;;;3.50;;
8993;SDS011;4532;50.886;4.700;2023-07-08T15:10:28;6.00;;;3.80;;
8993;SDS011;4532;50.886;4.700;2023-07-08T15:12:57;4.72;;;3.50;;
8993;SDS011;4532;50.886;4.700;2023-07-08T15:15:33;5.75;;;3.60;;
8993;SDS011;4532;50.886;4.700;2023-07-08T15:18:06;5.63;;;3.70;;
8993;SDS011;4532;50.886;4.700;2023-07-08T15:20:40;4.55;;;3.53;;
8993;SDS011;4532;50.886;4.700;2023-07-08T15:23:14;3.90;;;3.58;;
8993;SDS011;4532;50.886;4.700;2023-07-08T15:25:42;4.07;;;3.20;;
8993;SDS011;4532;50.886;4.700;2023-07-08T15:28:20;6.13;;;3.67;;
8993;SDS011;4532;50.886;4.700;2023-07-08T15:31:02;6.72;;;3.92;;
8993;SDS011;4532;50.886;4.700;2023-07-08T15:33:30;5.80;;;3.85;;
8993;SDS011;4532;50.886;4.700;2023-07-08T15:35:58;4.70;;;4.00;;
8993;SDS011;4532;50.886;4.700;2023-07-08T15:38:30;7.25;;;4.32;;
8993;SDS011;4532;50.886;4.700;2023-07-08T15:40:59;6.32;;;4.50;;
8993;SDS011;4532;50.886;4.700;2023-07-08T15:43:27;5.38;;;4.20;;
8993;SDS011;4532;50.886;4.700;2023-07-08T15:45:55;6.55;;;4.00;;
8993;SDS011;4532;50.886;4.700;2023-07-08T15:48:22;6.60;;;4.63;;
8993;SDS011;4532;50.886;4.700;2023-07-08T15:50:49;5.95;;;4.68;;
8993;SDS011;4532;50.886;4.700;2023-07-08T15:53:16;4.97;;;4.18;;
8993;SDS011;4532;50.886;4.700;2023-07-08T15:55:44;6.53;;;4.90;;
8993;SDS011;4532;50.886;4.700;2023-07-08T16:00:48;4.68;;;4.20;;
8993;SDS011;4532;50.886;4.700;2023-07-08T16:03:31;9.23;;;4.63;;
8993;SDS011;4532;50.886;4.700;2023-07-08T16:06:02;5.40;;;4.55;;
8993;SDS011;4532;50.886;4.700;2023-07-08T16:08:32;5.72;;;4.30;;
8993;SDS011;4532;50.886;4.700;2023-07-08T16:11:03;7.63;;;4.95;;
8993;SDS011;4532;50.886;4.700;2023-07-08T16:13:33;6.97;;;4.80;;
8993;SDS011;4532;50.886;4.700;2023-07-08T16:16:02;7.78;;;4.45;;
8993;SDS011;4532;50.886;4.700;2023-07-08T16:18:33;7.95;;;5.07;;
8993;SDS011;4532;50.886;4.700;2023-07-08T16:21:02;6.28;;;5.68;;
8993;SDS011;4532;50.886;4.700;2023-07-08T16:23:32;7.38;;;5.30;;
8993;SDS011;4532;50.886;4.700;2023-07-08T16:26:00;7.68;;;5.15;;
8993;SDS011;4532;50.886;4.700;2023-07-08T16:31:10;6.80;;;5.28;;
8993;SDS011;4532;50.886;4.700;2023-07-08T16:33:42;7.15;;;5.30;;
8993;SDS011;4532;50.886;4.700;2023-07-08T16:36:13;11.60;;;4.90;;
8993;SDS011;4532;50.886;4.700;2023-07-08T16:38:52;6.80;;;5.15;;
8993;SDS011;4532;50.886;4.700;2023-07-08T16:41:28;7.07;;;4.55;;
8993;SDS011;4532;50.886;4.700;2023-07-08T16:44:14;6.53;;;4.90;;
8993;SDS011;4532;50.886;4.700;2023-07-08T16:46:43;6.32;;;4.70;;
8993;SDS011;4532;50.886;4.700;2023-07-08T16:49:13;7.22;;;5.00;;
8993;SDS011;4532;50.886;4.700;2023-07-08T16:51:41;5.57;;;4.32;;
8993;SDS011;4532;50.886;4.700;2023-07-08T16:54:14;5.60;;;5.05;;
8993;SDS011;4532;50.886;4.700;2023-07-08T16:56:46;8.68;;;4.75;;
8993;SDS011;4532;50.886;4.700;2023-07-08T16:59:18;6.03;;;5.20;;
8993;SDS011;4532;50.886;4.700;2023-07-08T17:01:50;8.25;;;4.95;;
8993;SDS011;4532;50.886;4.700;2023-07-08T17:04:20;7.18;;;5.07;;
8993;SDS011;4532;50.886;4.700;2023-07-08T17:06:50;6.72;;;5.38;;
8993;SDS011;4532;50.886;4.700;2023-07-08T17:09:17;8.18;;;5.28;;
8993;SDS011;4532;50.886;4.700;2023-07-08T17:11:49;10.98;;;5.00;;
8993;SDS011;4532;50.886;4.700;2023-07-08T17:14:19;7.85;;;5.18;;
8993;SDS011;4532;50.886;4.700;2023-07-08T17:16:48;5.30;;;4.78;;
8993;SDS011;4532;50.886;4.700;2023-07-08T17:19:15;7.57;;;4.85;;
8993;SDS011;4532;50.886;4.700;2023-07-08T17:21:42;7.88;;;4.50;;
8993;SDS011;4532;50.886;4.700;2023-07-08T17:24:13;6.72;;;4.70;;